createdAt,value
2023-01-18T00:03:42.349Z,9.46
2023-01-18T00:08:44.300Z,7.30
2023-01-18T00:13:57.436Z,7.23
2023-01-18T00:19:00.285Z,9.26
2023-01-18T00:24:01.937Z,7.80
2023-01-18T00:29:04.831Z,6.80
2023-01-18T00:34:07.152Z,8.52
2023-01-18T00:39:36.696Z,9.39
2023-01-18T00:44:38.462Z,9.31
2023-01-18T00:49:40.138Z,7.20
2023-01-18T00:54:41.867Z,8.03
2023-01-18T00:59:43.561Z,9.15
2023-01-18T01:05:04.286Z,9.22
2023-01-18T01:10:09.806Z,9.58
2023-01-18T01:15:33.634Z,9.56
2023-01-18T01:20:54.505Z,9.42
2023-01-18T01:26:08.580Z,9.57
2023-01-18T01:31:11.523Z,9.16
2023-01-18T01:36:14.707Z,8.97
2023-01-18T01:41:18.471Z,8.89
2023-01-18T01:46:32.625Z,9.36
2023-01-18T01:51:36.171Z,9.43
2023-01-18T01:56:38.349Z,9.03
2023-01-18T02:01:43.850Z,8.71
2023-01-18T02:06:45.736Z,8.60
2023-01-18T02:11:47.495Z,8.65
2023-01-18T02:17:05.013Z,8.93
2023-01-18T02:22:14.688Z,8.90
2023-01-18T02:27:22.242Z,8.47
2023-01-18T02:32:32.528Z,8.29
2023-01-18T02:37:34.246Z,8.58
2023-01-18T02:42:56.498Z,8.90
2023-01-18T02:47:58.644Z,9.23
2023-01-18T02:53:00.489Z,9.49
2023-01-18T02:58:09.274Z,9.72
2023-01-18T03:03:12.179Z,9.93
2023-01-18T03:08:23.348Z,9.96
2023-01-18T03:13:30.222Z,9.96
2023-01-18T03:19:10.950Z,9.73
2023-01-18T03:24:14.385Z,9.47
2023-01-18T03:29:37.112Z,9.34
2023-01-18T03:34:44.927Z,9.16
2023-01-18T03:39:48.906Z,8.99
2023-01-18T03:44:50.599Z,8.53
2023-01-18T03:49:52.617Z,8.21
2023-01-18T03:55:00.496Z,7.84
2023-01-18T04:00:07.428Z,7.80
2023-01-18T04:05:14.509Z,7.71
2023-01-18T04:10:16.425Z,7.76
2023-01-18T04:15:18.237Z,8.14
2023-01-18T04:20:20.135Z,8.49
2023-01-18T04:25:21.931Z,8.71
2023-01-18T04:30:23.698Z,8.79
2023-01-18T04:35:25.493Z,8.59
2023-01-18T04:40:27.326Z,8.47
2023-01-18T04:45:29.055Z,8.69
2023-01-18T04:50:30.785Z,9.14
2023-01-18T04:55:32.606Z,9.25
2023-01-18T05:00:34.389Z,9.74
2023-01-18T05:05:36.198Z,9.70
2023-01-18T05:10:38.020Z,9.57
2023-01-18T05:15:40.053Z,9.68
2023-01-18T05:20:41.855Z,9.86
2023-01-18T05:25:43.706Z,9.89
2023-01-18T05:30:45.521Z,9.43
2023-01-18T05:35:48.500Z,9.01
2023-01-18T05:40:54.799Z,8.99
2023-01-18T05:45:57.143Z,9.35
2023-01-18T05:50:59.157Z,9.29
2023-01-18T05:56:05.274Z,9.08
2023-01-18T06:01:10.028Z,8.91
2023-01-18T06:06:11.890Z,8.66
2023-01-18T06:11:13.732Z,8.15
2023-01-18T06:16:15.507Z,7.84
2023-01-18T06:21:17.970Z,8.59
2023-01-18T06:26:19.828Z,9.18
2023-01-18T06:31:21.689Z,9.50
2023-01-18T06:36:23.500Z,9.88
2023-01-18T06:41:25.193Z,9.97
2023-01-18T06:46:26.918Z,9.96
2023-01-18T06:51:28.759Z,10.04
2023-01-18T06:56:30.566Z,10.17
2023-01-18T07:01:32.368Z,10.04
2023-01-18T07:06:36.560Z,9.88
2023-01-18T07:11:41.402Z,9.84
2023-01-18T07:16:43.176Z,9.84
2023-01-18T07:21:45.023Z,10.20
2023-01-18T07:26:46.797Z,10.35
2023-01-18T07:31:48.665Z,10.30
2023-01-18T07:36:50.445Z,10.09
2023-01-18T07:41:52.423Z,10.02
2023-01-18T07:46:54.348Z,9.87
2023-01-18T07:51:56.030Z,9.77
2023-01-18T07:56:57.909Z,9.93
2023-01-18T08:01:59.665Z,9.81
2023-01-18T08:07:01.469Z,9.75
2023-01-18T08:12:03.400Z,9.75
2023-01-18T08:17:06.444Z,9.91
2023-01-18T08:22:08.553Z,10.14
2023-01-18T08:27:10.365Z,10.33
2023-01-18T08:32:12.280Z,9.90
2023-01-18T08:37:14.032Z,9.34
2023-01-18T08:42:15.949Z,9.58
2023-01-18T08:47:18.166Z,9.89
2023-01-18T08:52:19.944Z,10.54
2023-01-18T08:57:21.694Z,11.42
2023-01-18T09:02:24.556Z,10.50
2023-01-18T09:07:27.753Z,8.25
2023-01-18T09:12:34.804Z,7.17
2023-01-18T09:17:39.290Z,8.54
2023-01-18T09:22:42.856Z,9.32
2023-01-18T09:27:46.578Z,10.07
2023-01-18T09:32:48.351Z,10.80
2023-01-18T09:37:50.170Z,10.75
2023-01-18T09:42:52.734Z,9.89
2023-01-18T09:47:57.640Z,9.73
2023-01-18T09:53:02.594Z,9.72
2023-01-18T09:58:19.168Z,9.64
2023-01-18T10:03:25.873Z,9.27
2023-01-18T10:08:29.033Z,9.53
2023-01-18T10:13:35.272Z,9.91
2023-01-18T10:18:45.615Z,10.21
2023-01-18T10:23:59.611Z,10.19
2023-01-18T10:29:01.405Z,10.38
2023-01-18T10:34:11.503Z,10.46
2023-01-18T10:39:27.610Z,10.57
2023-01-18T10:44:29.784Z,10.83
2023-01-18T10:49:41.823Z,11.02
2023-01-18T10:54:49.829Z,9.35
2023-01-18T10:59:53.753Z,9.30
2023-01-18T11:05:01.614Z,9.96
2023-01-18T11:10:09.657Z,10.51
2023-01-18T11:15:14.449Z,10.61
2023-01-18T11:20:17.895Z,10.58
2023-01-18T11:25:19.805Z,10.63
2023-01-18T11:30:22.698Z,10.89
2023-01-18T11:35:35.059Z,10.21
2023-01-18T11:40:36.704Z,9.79
2023-01-18T11:45:40.903Z,9.40
2023-01-18T11:50:45.359Z,9.12
2023-01-18T11:55:56.098Z,9.09
2023-01-18T12:01:21.661Z,8.70
2023-01-18T12:06:32.894Z,9.01
2023-01-18T12:11:43.542Z,9.08
2023-01-18T12:16:50.100Z,9.00
2023-01-18T12:22:16.246Z,9.38
2023-01-18T12:27:24.068Z,9.46
2023-01-18T12:32:28.679Z,8.67
2023-01-18T12:37:42.536Z,8.95
2023-01-18T12:42:56.083Z,9.03
2023-01-18T12:48:09.011Z,9.14
2023-01-18T12:53:15.693Z,9.06
2023-01-18T12:58:20.426Z,9.35
2023-01-18T13:03:25.289Z,9.06
2023-01-18T13:08:30.044Z,9.75
2023-01-18T13:13:32.110Z,9.99
2023-01-18T13:18:39.504Z,10.51
2023-01-18T13:24:00.187Z,11.24
2023-01-18T13:29:20.342Z,11.55
2023-01-18T13:34:24.942Z,9.93
2023-01-18T13:39:27.919Z,10.37
2023-01-18T13:44:36.732Z,10.79
2023-01-18T13:49:45.764Z,10.54
2023-01-18T13:54:47.534Z,10.20
2023-01-18T13:59:51.076Z,10.31
2023-01-18T14:05:19.836Z,10.45
2023-01-18T14:10:31.416Z,10.01
2023-01-18T14:15:44.994Z,9.63
2023-01-18T14:20:51.843Z,9.85
2023-01-18T14:26:05.522Z,9.83
2023-01-18T14:31:13.558Z,9.55
2023-01-18T14:36:28.390Z,9.41
2023-01-18T14:41:31.410Z,9.53
2023-01-18T14:46:33.620Z,9.66
2023-01-18T14:51:35.560Z,9.90
2023-01-18T14:56:43.585Z,10.18
2023-01-18T15:01:53.331Z,9.92
2023-01-18T15:07:03.901Z,9.97
2023-01-18T15:12:08.267Z,10.12
2023-01-18T15:17:11.536Z,10.16
2023-01-18T15:22:15.447Z,10.28
2023-01-18T15:27:20.421Z,10.74
2023-01-18T15:32:25.223Z,10.47
2023-01-18T15:37:27.002Z,10.06
2023-01-18T15:42:28.976Z,10.39
2023-01-18T15:47:33.222Z,10.24
2023-01-18T15:52:34.967Z,10.13
2023-01-18T15:57:36.886Z,10.31
2023-01-18T16:02:41.969Z,10.28
2023-01-18T16:07:43.704Z,9.95
2023-01-18T16:12:45.797Z,10.20
2023-01-18T16:17:47.562Z,10.31
2023-01-18T16:22:52.515Z,9.65
2023-01-18T16:28:03.140Z,9.54
2023-01-18T16:33:16.706Z,9.59
2023-01-18T16:38:20.072Z,9.90
2023-01-18T16:43:29.409Z,9.89
2023-01-18T16:48:33.495Z,9.99
2023-01-18T16:53:35.564Z,9.79
2023-01-18T16:58:37.508Z,9.91
2023-01-18T17:03:40.483Z,10.25
2023-01-18T17:08:44.614Z,10.09
2023-01-18T17:13:47.699Z,9.39
2023-01-18T17:18:49.900Z,9.11
2023-01-18T17:23:51.657Z,9.20
2023-01-18T17:28:53.403Z,9.52
2023-01-18T17:33:55.163Z,9.39
2023-01-18T17:38:57.185Z,9.02
2023-01-18T17:48:50.328Z,9.21
2023-01-18T17:53:52.619Z,9.40
2023-01-18T17:58:54.873Z,9.41
2023-01-18T18:03:56.627Z,9.50
2023-01-18T18:09:00.818Z,9.75
2023-01-18T18:14:03.271Z,9.92
2023-01-18T18:19:05.140Z,9.79
2023-01-18T18:24:07.326Z,10.06
2023-01-18T18:29:09.965Z,10.06
2023-01-18T18:34:12.386Z,9.72
2023-01-18T18:39:14.031Z,9.86
2023-01-18T18:44:21.232Z,10.10
2023-01-18T18:49:23.125Z,9.91
2023-01-18T18:54:25.208Z,10.40
2023-01-18T18:59:27.070Z,8.95
2023-01-18T19:04:28.776Z,8.78
2023-01-18T19:09:32.164Z,9.62
2023-01-18T19:14:34.019Z,9.78
2023-01-18T19:19:35.688Z,9.59
2023-01-18T19:24:37.275Z,9.44
2023-01-18T19:29:39.667Z,9.04
2023-01-18T19:34:41.352Z,8.84
2023-01-18T19:39:42.958Z,9.28
2023-01-18T19:44:44.856Z,9.73
2023-01-18T19:49:46.928Z,9.69
2023-01-18T19:54:48.664Z,7.57
2023-01-18T19:59:53.030Z,7.83
2023-01-18T20:04:57.862Z,8.83
2023-01-18T20:09:59.758Z,9.08
2023-01-18T20:15:01.800Z,9.12
2023-01-18T20:20:07.480Z,9.42
2023-01-18T20:25:11.201Z,9.58
2023-01-18T20:30:13.706Z,7.48
2023-01-18T20:35:17.642Z,6.63
2023-01-18T20:40:20.407Z,8.52
2023-01-18T20:45:22.168Z,9.24
2023-01-18T20:50:24.370Z,9.33
2023-01-18T20:55:26.084Z,7.48
2023-01-18T21:00:28.697Z,7.76
2023-01-18T21:05:30.481Z,8.67
2023-01-18T21:10:38.488Z,9.38
2023-01-18T21:15:41.845Z,9.73
2023-01-18T21:20:43.612Z,7.27
2023-01-18T21:25:50.497Z,6.21
2023-01-18T21:30:55.083Z,8.03
2023-01-18T21:36:23.026Z,8.72
2023-01-18T21:41:46.187Z,8.80
2023-01-18T21:46:49.550Z,8.96
2023-01-18T21:52:10.050Z,8.52
2023-01-18T21:57:11.759Z,6.05
2023-01-18T22:02:16.117Z,6.10
2023-01-18T22:07:17.935Z,7.66
2023-01-18T22:12:21.377Z,8.60
2023-01-18T22:17:23.094Z,9.04
2023-01-18T22:22:24.793Z,8.38
2023-01-18T22:27:36.400Z,6.59
2023-01-18T22:32:39.123Z,7.74
2023-01-18T22:37:41.243Z,8.41
2023-01-18T22:42:43.447Z,8.82
2023-01-18T22:47:45.176Z,8.34
2023-01-18T22:52:46.856Z,5.88
2023-01-18T22:57:48.534Z,5.66
2023-01-18T23:02:50.437Z,8.60
2023-01-18T23:07:52.274Z,8.29
2023-01-18T23:12:53.957Z,5.68
2023-01-18T23:17:56.024Z,5.56
2023-01-18T23:22:57.690Z,8.17
2023-01-18T23:28:03.324Z,9.31
2023-01-18T23:33:05.069Z,7.77
2023-01-18T23:38:06.689Z,5.39
2023-01-18T23:43:27.052Z,5.43
2023-01-18T23:48:47.595Z,8.12
2023-01-18T23:54:08.243Z,8.96
2023-01-18T23:59:10.780Z,6.32
